Time;durP1;ratioP1;P1;durP2;ratioP2;P2;SDS_P1;SDS_P2;PMS_P1;PMS_P2;Temp;Humidity;BMP_temperature;BMP_pressure;BME280_temperature;BME280_humidity;BME280_pressure;Samples;Min_cycle;Max_cycle;Signal;HPM_P1;HPM_P2
2023/09/20 00:01:52;;;;;;;3.38;1.58;;;21.80;61.90;23.20;100649.00;;;;5029240;28;20201;-78
2023/09/20 00:04:19;;;;;;;3.72;1.83;;;21.80;62.00;23.20;100646.00;;;;5030214;28;20223;-78
2023/09/20 00:06:46;;;;;;;5.15;1.58;;;21.80;61.90;23.20;100653.00;;;;5030683;28;20204;-78
2023/09/20 00:09:14;;;;;;;4.45;1.35;;;21.80;61.90;23.20;100646.00;;;;5027199;28;20189;-77
2023/09/20 00:11:43;;;;;;;2.95;1.20;;;21.80;62.00;23.20;100647.00;;;;5020540;28;20760;-77
2023/09/20 00:14:10;;;;;;;4.38;1.50;;;21.80;61.90;23.20;100645.00;;;;5022176;28;20279;-78
2023/09/20 00:16:37;;;;;;;3.50;1.38;;;21.80;61.90;23.20;100638.00;;;;5029560;28;20307;-78
2023/09/20 00:19:05;;;;;;;2.38;1.40;;;21.80;62.00;23.20;100640.00;;;;5014478;28;20200;-78
2023/09/20 00:21:32;;;;;;;2.28;1.33;;;21.80;61.90;23.20;100636.00;;;;5028774;28;20204;-78
2023/09/20 00:23:59;;;;;;;3.40;1.48;;;21.80;61.90;23.20;100631.00;;;;5027730;28;20287;-78
2023/09/20 00:26:28;;;;;;;3.03;1.20;;;21.80;61.90;23.20;100633.00;;;;5030235;28;20208;-78
2023/09/20 00:29:02;;;;;;;3.88;1.38;;;21.80;61.80;23.20;100631.00;;;;5030560;28;20193;-78
2023/09/20 00:31:29;;;;;;;3.13;1.00;;;21.80;61.80;23.20;100631.00;;;;5020117;28;20236;-78
2023/09/20 00:33:57;;;;;;;3.90;1.40;;;21.80;61.80;23.20;100632.00;;;;5027467;28;20297;-78
2023/09/20 00:36:25;;;;;;;4.00;1.30;;;21.80;61.80;23.20;100633.00;;;;5029338;28;20197;-78
2023/09/20 00:38:53;;;;;;;1.95;1.08;;;21.80;61.80;23.20;100633.00;;;;5029169;28;20215;-78
2023/09/20 00:41:21;;;;;;;2.95;1.50;;;21.80;61.70;23.20;100633.00;;;;5029247;28;20581;-78
2023/09/20 00:43:52;;;;;;;3.03;1.40;;;21.70;61.70;23.20;100632.00;;;;5029022;28;20672;-78
2023/09/20 00:46:20;;;;;;;4.28;1.88;;;21.80;61.70;23.10;100629.00;;;;5013331;28;20549;-78
2023/09/20 00:48:50;;;;;;;4.10;1.60;;;21.70;61.50;23.10;100622.00;;;;5022073;28;20303;-78
2023/09/20 00:51:18;;;;;;;3.05;1.38;;;21.70;61.50;23.10;100627.00;;;;5029428;28;20227;-78
2023/09/20 00:53:47;;;;;;;2.88;1.42;;;21.70;61.60;23.10;100619.00;;;;5028312;28;20403;-78
2023/09/20 00:56:14;;;;;;;4.18;1.48;;;21.60;61.60;23.10;100618.00;;;;5024994;28;20240;-78
2023/09/20 00:58:43;;;;;;;3.40;1.08;;;21.60;61.60;23.00;100628.00;;;;5029585;28;20571;-78
2023/09/20 01:01:11;;;;;;;4.93;1.80;;;21.60;61.60;23.00;100621.00;;;;5015421;28;20238;-78
2023/09/20 01:03:39;;;;;;;2.97;1.58;;;21.50;61.50;23.00;100625.00;;;;5027828;28;20206;-78
2023/09/20 01:06:08;;;;;;;3.17;1.35;;;21.50;61.60;23.00;100626.00;;;;5025555;28;20223;-79
2023/09/20 01:08:35;;;;;;;3.67;1.60;;;21.50;61.70;23.00;100619.00;;;;5028888;28;20196;-79
2023/09/20 01:11:04;;;;;;;2.72;1.42;;;21.50;61.80;22.90;100618.00;;;;5028439;28;20224;-78
2023/09/20 01:13:32;;;;;;;5.85;1.65;;;21.50;61.90;22.90;100625.00;;;;5027693;28;20231;-78
2023/09/20 01:16:01;;;;;;;4.22;1.33;;;21.50;61.90;22.90;100619.00;;;;5028732;28;20188;-79
2023/09/20 01:18:28;;;;;;;2.90;1.02;;;21.50;61.90;22.90;100613.00;;;;5029599;28;20204;-78
2023/09/20 01:20:55;;;;;;;2.83;1.60;;;21.50;61.90;22.90;100615.00;;;;5028709;28;20277;-78
2023/09/20 01:23:23;;;;;;;6.00;1.75;;;21.40;61.80;22.80;100612.00;;;;5018707;28;20197;-78
2023/09/20 01:25:52;;;;;;;6.50;2.03;;;21.40;61.90;22.80;100607.00;;;;5027404;28;20207;-78
2023/09/20 01:28:19;;;;;;;2.80;1.48;;;21.40;61.90;22.80;100611.00;;;;5028906;28;20226;-78
2023/09/20 01:30:50;;;;;;;3.70;1.40;;;21.30;61.80;22.80;100601.00;;;;5028364;28;20228;-78
2023/09/20 01:33:18;;;;;;;13.27;2.08;;;21.30;61.90;22.80;100611.00;;;;5026637;28;20248;-77
2023/09/20 01:35:45;;;;;;;2.92;1.58;;;21.30;61.90;22.80;100609.00;;;;5028390;28;20201;-78
2023/09/20 01:38:12;;;;;;;5.22;1.80;;;21.30;61.90;22.70;100597.00;;;;5028962;28;20200;-78
2023/09/20 01:40:40;;;;;;;6.35;1.88;;;21.20;62.00;22.70;100598.00;;;;5023984;28;20753;-78
2023/09/20 01:43:08;;;;;;;3.30;1.35;;;21.30;62.00;22.70;100593.00;;;;5027847;28;20200;-78
2023/09/20 01:45:36;;;;;;;4.65;2.17;;;21.20;62.00;22.70;100600.00;;;;5026515;28;20213;-77
2023/09/20 01:48:08;;;;;;;3.85;1.83;;;21.20;62.00;22.60;100591.00;;;;5028077;28;20196;-78
2023/09/20 01:50:36;;;;;;;4.47;1.48;;;21.20;62.00;22.60;100594.00;;;;5028502;28;20219;-78
2023/09/20 01:53:08;;;;;;;3.75;1.73;;;21.20;62.00;22.60;100590.00;;;;5028819;28;20227;-78
2023/09/20 01:55:37;;;;;;;3.28;1.33;;;21.20;62.10;22.60;100589.00;;;;5027582;28;20225;-78
2023/09/20 01:58:06;;;;;;;2.67;1.63;;;21.10;62.10;22.60;100589.00;;;;5025982;28;20200;-78
2023/09/20 02:00:39;;;;;;;6.40;1.63;;;21.20;62.30;22.60;100598.00;;;;5027661;28;20200;-78
2023/09/20 02:03:13;;;;;;;2.70;1.60;;;21.10;62.30;22.60;100606.00;;;;5028159;28;20196;-78
2023/09/20 02:05:41;;;;;;;4.20;1.52;;;21.10;62.40;22.60;100605.00;;;;5028191;28;20247;-78
2023/09/20 02:08:08;;;;;;;2.88;1.70;;;21.10;62.40;22.60;100598.00;;;;5024219;28;20192;-78
2023/09/20 02:10:37;;;;;;;3.22;1.70;;;21.10;62.50;22.60;100593.00;;;;5027516;28;20212;-78
2023/09/20 02:13:07;;;;;;;2.50;1.50;;;21.10;62.80;22.60;100589.00;;;;5022649;28;20319;-78
2023/09/20 02:15:36;;;;;;;6.28;1.92;;;21.10;62.50;22.60;100590.00;;;;5019217;28;20201;-78
2023/09/20 02:18:05;;;;;;;4.85;1.67;;;21.10;63.20;22.60;100586.00;;;;5025815;28;20201;-78
2023/09/20 02:20:36;;;;;;;4.53;1.50;;;21.20;62.60;22.60;100595.00;;;;5025421;28;20661;-79
2023/09/20 02:23:06;;;;;;;3.47;1.65;;;21.20;62.60;22.60;100597.00;;;;5026529;28;20192;-78
2023/09/20 02:25:33;;;;;;;4.93;1.63;;;21.20;62.50;22.60;100589.00;;;;5027268;28;20282;-78
2023/09/20 02:28:01;;;;;;;2.92;1.58;;;21.20;62.50;22.60;100590.00;;;;5026287;28;20199;-78
2023/09/20 02:30:32;;;;;;;3.15;1.65;;;21.20;62.50;22.60;100580.00;;;;5027896;28;20206;-78
2023/09/20 02:33:02;;;;;;;2.97;1.25;;;21.20;62.50;22.70;100581.00;;;;5026348;28;20220;-78
2023/09/20 02:35:29;;;;;;;3.40;1.70;;;21.20;62.50;22.70;100581.00;;;;5026461;28;20196;-78
2023/09/20 02:37:58;;;;;;;1.92;1.42;;;21.20;62.50;22.70;100589.00;;;;5026097;28;20211;-78
2023/09/20 02:40:26;;;;;;;3.63;1.30;;;21.30;62.50;22.70;100583.00;;;;5028285;28;20207;-78
2023/09/20 02:42:58;;;;;;;7.15;1.88;;;21.20;62.40;22.70;100571.00;;;;5027848;28;20211;-78
2023/09/20 02:45:27;;;;;;;3.08;1.45;;;21.20;62.40;22.70;100573.00;;;;5026424;28;20204;-78
2023/09/20 02:47:56;;;;;;;7.00;1.38;;;21.20;62.40;22.70;100571.00;;;;5027678;28;20204;-78
2023/09/20 02:50:25;;;;;;;2.70;1.23;;;21.20;62.30;22.60;100564.00;;;;5027330;28;20199;-78
2023/09/20 02:52:55;;;;;;;5.68;1.73;;;21.20;63.00;22.60;100553.00;;;;5027254;28;20212;-78
2023/09/20 02:55:23;;;;;;;3.92;1.55;;;21.20;62.30;22.60;100550.00;;;;5026579;28;20228;-77
2023/09/20 02:57:54;;;;;;;3.80;1.50;;;21.20;62.20;22.60;100546.00;;;;5027284;28;20216;-78
2023/09/20 03:00:27;;;;;;;3.88;1.67;;;21.20;62.20;22.60;100550.00;;;;5026778;28;20288;-78
2023/09/20 03:03:00;;;;;;;2.17;1.50;;;21.20;62.20;22.60;100545.00;;;;5027150;28;20212;-77
2023/09/20 03:05:29;;;;;;;2.55;1.27;;;21.20;62.20;22.60;100543.00;;;;5026431;28;20208;-78
2023/09/20 03:07:57;;;;;;;4.15;1.52;;;21.10;62.10;22.60;100545.00;;;;5026751;28;20208;-78
2023/09/20 03:10:27;;;;;;;2.30;1.40;;;21.10;62.20;22.50;100538.00;;;;5024938;28;20200;-78
2023/09/20 03:12:57;;;;;;;4.57;1.88;;;21.10;62.10;22.50;100535.00;;;;5026295;28;20197;-78
2023/09/20 03:15:26;;;;;;;5.22;1.55;;;21.10;62.20;22.50;100536.00;;;;5027946;28;20204;-78
2023/09/20 03:18:00;;;;;;;3.45;1.60;;;21.10;62.20;22.50;100532.00;;;;5026933;28;22017;-78
2023/09/20 03:20:32;;;;;;;4.22;1.67;;;21.00;62.20;22.50;100520.00;;;;5027078;28;20279;-79
2023/09/20 03:23:02;;;;;;;4.85;1.70;;;21.00;62.20;22.50;100521.00;;;;5025722;28;20701;-78
2023/09/20 03:25:35;;;;;;;4.55;1.55;;;21.00;62.30;22.50;100529.00;;;;5020681;28;20208;-78
2023/09/20 03:28:04;;;;;;;2.80;1.45;;;21.00;62.40;22.50;100532.00;;;;5019325;28;20580;-78
2023/09/20 03:30:33;;;;;;;4.55;1.50;;;21.00;62.40;22.50;100522.00;;;;5027982;28;20192;-78
2023/09/20 03:33:04;;;;;;;3.70;1.45;;;21.00;62.50;22.40;100510.00;;;;5027144;28;20220;-78
2023/09/20 03:35:32;;;;;;;2.42;1.50;;;21.00;62.50;22.50;100521.00;;;;5026724;28;20566;-78
2023/09/20 03:37:59;;;;;;;3.75;1.48;;;21.00;62.50;22.50;100524.00;;;;5027455;28;20628;-78
2023/09/20 03:40:28;;;;;;;2.28;1.33;;;21.00;62.60;22.50;100520.00;;;;5027324;28;20211;-78
2023/09/20 03:42:55;;;;;;;1.75;1.23;;;21.00;62.60;22.50;100517.00;;;;5027134;28;20204;-78
2023/09/20 03:45:22;;;;;;;2.05;1.25;;;21.00;62.70;22.50;100518.00;;;;5027182;28;20258;-78
2023/09/20 03:47:53;;;;;;;2.45;1.40;;;21.00;62.70;22.50;100512.00;;;;5012325;28;20211;-78
2023/09/20 03:50:22;;;;;;;3.05;1.13;;;21.00;62.70;22.50;100500.00;;;;5028221;28;20196;-79
2023/09/20 03:52:49;;;;;;;3.72;1.10;;;21.00;62.70;22.50;100493.00;;;;5027333;28;20231;-78
2023/09/20 03:55:16;;;;;;;2.28;1.05;;;21.00;62.70;22.50;100499.00;;;;5019131;28;20193;-78
2023/09/20 03:57:44;;;;;;;4.10;1.15;;;21.00;62.70;22.50;100501.00;;;;5010056;28;20335;-78
2023/09/20 04:00:12;;;;;;;3.30;1.48;;;21.00;62.80;22.50;100504.00;;;;5022700;28;20200;-78
2023/09/20 04:02:40;;;;;;;2.53;1.48;;;21.00;62.70;22.50;100503.00;;;;5026987;28;20212;-78
2023/09/20 04:05:10;;;;;;;2.13;1.20;;;21.00;62.80;22.50;100497.00;;;;5026529;28;20200;-78
2023/09/20 04:07:39;;;;;;;2.33;1.00;;;21.10;62.80;22.50;100494.00;;;;5030301;28;20567;-78
2023/09/20 04:10:08;;;;;;;2.35;1.27;;;21.10;62.80;22.50;100493.00;;;;5030617;28;20641;-78
2023/09/20 04:12:35;;;;;;;2.95;1.30;;;21.10;62.80;22.50;100498.00;;;;5024909;28;20231;-78
2023/09/20 04:15:04;;;;;;;3.65;1.42;;;21.10;62.90;22.50;100494.00;;;;5028751;28;20193;-78
2023/09/20 04:17:32;;;;;;;1.95;1.10;;;21.10;62.90;22.50;100496.00;;;;5029668;28;20208;-78
2023/09/20 04:20:00;;;;;;;2.58;1.55;;;21.10;62.90;22.60;100492.00;;;;5030552;28;20199;-78
2023/09/20 04:22:27;;;;;;;3.20;1.27;;;21.10;62.90;22.60;100489.00;;;;5031335;28;20265;-78
2023/09/20 04:24:56;;;;;;;2.45;1.15;;;21.10;62.90;22.60;100489.00;;;;5030547;28;20200;-78
2023/09/20 04:27:22;;;;;;;3.42;1.27;;;21.10;62.90;22.60;100487.00;;;;5030303;28;20197;-78
2023/09/20 04:29:49;;;;;;;4.70;1.20;;;21.10;62.80;22.60;100484.00;;;;5019388;28;20200;-78
2023/09/20 04:32:18;;;;;;;4.00;1.30;;;21.10;62.80;22.60;100486.00;;;;5030236;28;20278;-78
2023/09/20 04:34:45;;;;;;;5.05;1.50;;;21.10;62.80;22.60;100485.00;;;;5029603;28;20262;-78
2023/09/20 04:37:13;;;;;;;2.60;1.20;;;21.10;62.80;22.60;100486.00;;;;5030882;28;20253;-78
2023/09/20 04:39:40;;;;;;;4.30;1.73;;;21.20;62.90;22.60;100489.00;;;;5026914;28;20197;-79
2023/09/20 04:42:10;;;;;;;2.10;1.13;;;21.20;62.90;22.60;100484.00;;;;5030173;28;20200;-78
2023/09/20 04:44:38;;;;;;;2.47;1.40;;;21.10;62.80;22.60;100485.00;;;;5027890;28;20211;-78
2023/09/20 04:47:05;;;;;;;2.78;1.17;;;21.20;62.80;22.60;100485.00;;;;5026815;28;21220;-78
2023/09/20 04:49:33;;;;;;;5.63;1.48;;;21.20;62.90;22.60;100489.00;;;;5023325;28;20196;-78
2023/09/20 04:52:00;;;;;;;3.15;1.08;;;21.20;62.80;22.60;100478.00;;;;5029476;28;20235;-78
2023/09/20 04:54:27;;;;;;;2.05;1.40;;;21.20;62.80;22.70;100483.00;;;;5031034;28;20294;-79
2023/09/20 04:56:54;;;;;;;4.18;1.80;;;21.20;62.80;22.60;100482.00;;;;5026373;28;20232;-78
2023/09/20 04:59:23;;;;;;;4.03;1.10;;;21.20;62.80;22.60;100481.00;;;;5025796;28;20210;-78
2023/09/20 05:01:50;;;;;;;3.08;1.38;;;21.20;62.80;22.60;100477.00;;;;5029644;28;20199;-78
2023/09/20 05:04:19;;;;;;;4.28;2.10;;;21.20;62.80;22.60;100482.00;;;;5014298;28;20208;-78
2023/09/20 05:06:46;;;;;;;3.90;1.52;;;21.20;62.80;22.60;100485.00;;;;5029152;28;20196;-78
2023/09/20 05:09:14;;;;;;;2.10;1.30;;;21.20;62.80;22.60;100489.00;;;;5030942;28;20243;-78
2023/09/20 05:11:40;;;;;;;2.70;1.40;;;21.20;62.80;22.60;100489.00;;;;5023496;28;20226;-78
2023/09/20 05:14:07;;;;;;;4.80;1.67;;;21.20;62.80;22.60;100488.00;;;;5023510;28;20196;-79
2023/09/20 05:16:36;;;;;;;3.50;1.60;;;21.20;62.80;22.60;100492.00;;;;5020984;28;20208;-78
2023/09/20 05:19:03;;;;;;;3.25;1.40;;;21.10;62.70;22.60;100491.00;;;;5020450;28;20188;-78
2023/09/20 05:21:30;;;;;;;3.78;1.42;;;21.10;63.30;22.60;100486.00;;;;5020687;28;20208;-77
2023/09/20 05:23:57;;;;;;;3.75;1.58;;;21.10;62.70;22.60;100488.00;;;;5022431;28;20193;-78
2023/09/20 05:26:24;;;;;;;2.55;1.38;;;21.10;62.70;22.50;100485.00;;;;5025482;28;20876;-78
2023/09/20 05:28:51;;;;;;;3.30;1.60;;;21.10;62.70;22.50;100485.00;;;;5023672;28;20571;-77
2023/09/20 05:31:18;;;;;;;6.32;1.92;;;21.10;62.60;22.50;100476.00;;;;5022485;28;20298;-77
2023/09/20 05:33:48;;;;;;;3.00;1.50;;;21.10;62.60;22.50;100476.00;;;;5023262;28;20196;-77
2023/09/20 05:36:16;;;;;;;1.73;1.33;;;21.10;62.70;22.50;100479.00;;;;5022878;28;20689;-77
2023/09/20 05:38:42;;;;;;;3.13;1.38;;;21.00;62.70;22.50;100474.00;;;;5027664;28;20662;-77
2023/09/20 05:41:10;;;;;;;3.53;1.30;;;21.00;62.70;22.40;100476.00;;;;5020008;28;20211;-77
2023/09/20 05:43:39;;;;;;;2.80;1.33;;;21.00;62.70;22.40;100476.00;;;;5023421;28;20196;-78
2023/09/20 05:46:07;;;;;;;4.07;2.05;;;21.00;62.80;22.40;100476.00;;;;5025191;28;20208;-77
2023/09/20 05:48:34;;;;;;;4.65;1.63;;;21.00;62.80;22.40;100469.00;;;;5020948;28;20209;-78
2023/09/20 05:51:03;;;;;;;3.20;1.75;;;21.00;62.80;22.40;100467.00;;;;5024955;28;20216;-78
2023/09/20 05:53:30;;;;;;;4.32;1.42;;;21.00;62.80;22.40;100473.00;;;;5024006;28;20723;-78
2023/09/20 05:55:57;;;;;;;4.30;1.92;;;21.00;62.90;22.40;100466.00;;;;5028971;28;20241;-77
2023/09/20 05:58:25;;;;;;;3.92;1.58;;;21.00;63.00;22.50;100472.00;;;;5029187;28;20200;-78
2023/09/20 06:00:53;;;;;;;4.70;2.10;;;21.00;63.00;22.50;100474.00;;;;5028195;28;20193;-78
2023/09/20 06:03:21;;;;;;;4.15;2.22;;;20.90;63.00;22.50;100475.00;;;;5028725;28;20577;-77
2023/09/20 06:05:49;;;;;;;2.17;1.42;;;21.00;63.10;22.50;100475.00;;;;5023364;28;20200;-76
2023/09/20 06:08:17;;;;;;;3.45;1.63;;;21.00;63.10;22.50;100472.00;;;;5025173;28;20204;-77
2023/09/20 06:10:45;;;;;;;4.93;2.00;;;21.00;63.10;22.50;100466.00;;;;5026070;28;20204;-77
2023/09/20 06:13:12;;;;;;;3.65;1.83;;;21.00;63.10;22.50;100470.00;;;;5025087;28;20220;-76
2023/09/20 06:15:39;;;;;;;4.72;2.20;;;21.00;63.10;22.50;100470.00;;;;5024515;28;20196;-77
2023/09/20 06:18:08;;;;;;;2.60;1.45;;;21.00;63.10;22.50;100476.00;;;;5020250;28;20987;-78
2023/09/20 06:20:36;;;;;;;3.88;1.92;;;21.00;63.30;22.60;100469.00;;;;5028281;28;20197;-77
2023/09/20 06:23:06;;;;;;;5.47;1.65;;;21.10;63.30;22.60;100477.00;;;;5027674;28;20192;-77
2023/09/20 06:25:35;;;;;;;4.47;1.50;;;21.10;63.20;22.60;100469.00;;;;5028429;28;20598;-77
2023/09/20 06:28:03;;;;;;;8.85;2.85;;;21.10;63.30;22.60;100472.00;;;;5023453;28;20204;-78
2023/09/20 06:30:30;;;;;;;3.53;1.83;;;21.10;63.30;22.60;100475.00;;;;5026624;28;20280;-77
2023/09/20 06:32:57;;;;;;;6.57;2.08;;;21.10;63.30;22.60;100476.00;;;;5023544;28;20708;-78
2023/09/20 06:35:24;;;;;;;6.82;1.75;;;21.10;63.20;22.70;100473.00;;;;5027094;28;20211;-78
2023/09/20 06:37:51;;;;;;;2.00;1.58;;;21.10;63.30;22.70;100475.00;;;;5026624;28;20192;-78
2023/09/20 06:40:22;;;;;;;3.15;1.92;;;21.20;63.30;22.70;100474.00;;;;5028497;28;20661;-78
2023/09/20 06:42:51;;;;;;;4.60;2.25;;;21.20;63.30;22.70;100480.00;;;;5028267;28;20311;-78
2023/09/20 06:45:18;;;;;;;4.13;1.73;;;21.20;63.30;22.70;100468.00;;;;5028387;28;20189;-77
2023/09/20 06:47:45;;;;;;;3.38;1.90;;;21.20;63.30;22.70;100464.00;;;;5027136;28;20681;-77
2023/09/20 06:50:13;;;;;;;3.38;1.50;;;21.20;63.30;22.80;100459.00;;;;5028148;28;20211;-78
2023/09/20 06:52:41;;;;;;;5.28;2.05;;;21.20;63.30;22.80;100468.00;;;;5027540;28;20701;-78
2023/09/20 06:55:11;;;;;;;4.13;1.63;;;21.20;63.30;22.80;100467.00;;;;5028158;28;20561;-78
2023/09/20 06:57:38;;;;;;;4.93;1.90;;;21.20;63.30;22.80;100467.00;;;;5027573;28;20239;-77
2023/09/20 07:00:16;;;;;;;2.95;1.73;;;21.30;63.40;22.80;100473.00;;;;5028029;28;20244;-78
2023/09/20 07:02:43;;;;;;;3.17;1.85;;;21.30;63.40;22.80;100463.00;;;;5027780;28;20278;-78
2023/09/20 07:05:10;;;;;;;2.78;1.23;;;21.30;63.40;22.80;100470.00;;;;5027308;28;20192;-78
2023/09/20 07:07:37;;;;;;;2.50;1.58;;;21.30;63.40;22.80;100469.00;;;;5027855;28;20578;-77
2023/09/20 07:10:06;;;;;;;3.20;1.40;;;21.30;63.40;22.80;100466.00;;;;5026876;28;20196;-77
2023/09/20 07:12:36;;;;;;;3.50;1.33;;;21.30;63.50;22.80;100472.00;;;;5025676;28;20236;-78
2023/09/20 07:15:06;;;;;;;2.30;1.42;;;21.40;63.50;22.80;100473.00;;;;5026411;28;20200;-78
2023/09/20 07:17:35;;;;;;;3.55;1.60;;;21.40;63.50;22.90;100471.00;;;;5027895;28;20204;-78
2023/09/20 07:20:08;;;;;;;2.47;1.33;;;21.40;63.50;22.90;100470.00;;;;5028330;28;20227;-78
2023/09/20 07:22:38;;;;;;;2.40;1.38;;;21.40;63.50;22.90;100469.00;;;;5027924;28;20721;-78
2023/09/20 07:25:08;;;;;;;3.33;2.22;;;21.40;63.40;22.90;100471.00;;;;5027417;28;20246;-77
2023/09/20 07:27:35;;;;;;;3.10;1.75;;;21.40;63.40;22.90;100476.00;;;;5026690;28;20196;-78
2023/09/20 07:30:10;;;;;;;1.80;1.30;;;21.40;63.40;22.90;100477.00;;;;5023658;28;20196;-78
2023/09/20 07:32:39;;;;;;;1.63;1.52;;;21.50;63.50;22.90;100476.00;;;;5024657;28;20235;-78
2023/09/20 07:35:19;;;;;;;3.40;1.77;;;21.50;63.50;23.00;100479.00;;;;5023668;28;20197;-78
2023/09/20 07:37:48;;;;;;;2.75;1.50;;;21.50;63.50;23.00;100467.00;;;;5024682;28;20279;-78
2023/09/20 07:40:15;;;;;;;3.15;1.55;;;21.50;63.40;23.00;100471.00;;;;5026644;28;21209;-78
2023/09/20 07:42:43;;;;;;;5.15;1.55;;;21.50;63.40;23.00;100471.00;;;;5028939;28;20641;-78
2023/09/20 07:45:13;;;;;;;3.47;1.45;;;21.50;63.40;23.00;100473.00;;;;5030906;28;20246;-78
2023/09/20 07:47:43;;;;;;;2.22;1.80;;;21.50;63.30;23.00;100468.00;;;;5030492;28;20196;-78
2023/09/20 07:50:11;;;;;;;3.67;1.92;;;21.60;63.40;23.00;100457.00;;;;5030759;28;20271;-77
2023/09/20 07:52:40;;;;;;;3.55;1.40;;;21.60;63.40;23.10;100462.00;;;;5028645;28;20224;-78
2023/09/20 07:55:08;;;;;;;2.83;1.40;;;21.60;63.40;23.00;100472.00;;;;5021006;28;20197;-78
2023/09/20 07:57:35;;;;;;;1.52;1.40;;;21.60;63.40;23.10;100472.00;;;;5011747;28;20302;-79
2023/09/20 08:00:07;;;;;;;2.58;1.67;;;21.60;63.40;23.10;100475.00;;;;5023135;28;20674;-78
2023/09/20 08:02:34;;;;;;;3.28;1.60;;;21.60;63.50;23.10;100477.00;;;;5030768;28;20204;-79
2023/09/20 08:05:02;;;;;;;2.15;1.50;;;21.60;63.40;23.10;100474.00;;;;5030215;28;20196;-78
2023/09/20 08:07:29;;;;;;;4.03;1.40;;;21.70;63.50;23.20;100479.00;;;;5031767;28;20200;-79
2023/09/20 08:09:56;;;;;;;4.40;1.70;;;21.70;63.50;23.20;100480.00;;;;5030602;28;20207;-78
2023/09/20 08:12:23;;;;;;;2.70;1.60;;;21.80;63.60;23.30;100483.00;;;;5030852;28;20220;-78
2023/09/20 08:14:51;;;;;;;1.90;1.13;;;21.80;63.60;23.30;100475.00;;;;5030508;28;20586;-79
2023/09/20 08:20:10;;;;;;;4.00;1.92;;;21.80;63.50;23.40;100479.00;;;;5030543;28;20239;-79
2023/09/20 09:01:20;;;;;;;2.78;1.23;;;22.40;63.60;23.80;100499.00;;;;5030619;28;20230;-79
2023/09/20 09:03:48;;;;;;;3.35;1.40;;;22.40;62.80;23.80;100496.00;;;;5029923;28;20192;-79
2023/09/20 09:06:16;;;;;;;1.90;1.25;;;22.40;62.60;23.80;100508.00;;;;5030027;28;20685;-78
2023/09/20 09:08:45;;;;;;;2.50;1.40;;;22.40;62.50;23.80;100499.00;;;;5029478;28;20208;-80
2023/09/20 09:11:12;;;;;;;3.88;1.40;;;22.40;62.60;23.80;100504.00;;;;5025643;28;20189;-78
2023/09/20 09:13:40;;;;;;;2.83;1.50;;;22.40;62.60;23.80;100507.00;;;;5028507;28;20595;-79
2023/09/20 09:16:08;;;;;;;2.20;1.20;;;22.40;62.50;23.80;100510.00;;;;5027650;28;20266;-80
2023/09/20 09:18:35;;;;;;;2.97;1.10;;;22.40;62.40;23.80;100503.00;;;;5028889;28;20666;-79
2023/09/20 09:21:04;;;;;;;3.03;1.40;;;22.40;62.50;23.80;100506.00;;;;5027945;28;20667;-78
2023/09/20 09:23:38;;;;;;;3.55;1.70;;;22.40;62.50;23.80;100502.00;;;;5029526;28;20937;-78
2023/09/20 09:26:07;;;;;;;2.58;1.33;;;22.40;62.40;23.90;100500.00;;;;5029457;28;20195;-79
2023/09/20 09:28:38;;;;;;;2.58;1.48;;;22.40;62.40;23.80;100493.00;;;;5027338;28;20196;-79
2023/09/20 09:31:06;;;;;;;2.85;1.60;;;22.40;62.40;23.90;100497.00;;;;5028397;28;20931;-78
2023/09/20 09:33:34;;;;;;;2.67;1.60;;;22.40;62.40;23.90;100495.00;;;;5029648;28;20227;-79
2023/09/20 09:36:01;;;;;;;1.65;1.17;;;22.40;62.40;23.90;100493.00;;;;5029120;28;20189;-78
2023/09/20 09:38:28;;;;;;;2.78;1.45;;;22.40;62.30;23.90;100490.00;;;;5030245;28;20208;-78
2023/09/20 09:40:57;;;;;;;4.00;1.98;;;22.50;62.30;23.90;100492.00;;;;5028664;28;20254;-78
2023/09/20 09:43:26;;;;;;;3.08;1.48;;;22.50;62.30;23.90;100485.00;;;;5029668;28;20200;-78
2023/09/20 09:45:56;;;;;;;6.25;1.63;;;22.50;62.40;23.90;100487.00;;;;5028337;28;20717;-78
2023/09/20 09:48:27;;;;;;;2.97;1.65;;;22.50;62.40;23.90;100482.00;;;;5028102;28;20724;-78
2023/09/20 09:50:58;;;;;;;2.95;1.23;;;22.50;62.30;23.90;100477.00;;;;5028832;28;20205;-79
2023/09/20 09:53:26;;;;;;;3.00;1.77;;;22.50;62.40;24.00;100471.00;;;;5029054;28;20224;-82
2023/09/20 09:55:55;;;;;;;2.60;1.35;;;22.50;62.60;24.10;100463.00;;;;5025989;28;20244;-80
2023/09/20 09:58:22;;;;;;;2.80;1.52;;;22.60;62.80;24.20;100463.00;;;;5029249;28;20200;-81
2023/09/20 10:00:53;;;;;;;3.60;1.48;;;22.60;62.90;24.20;100469.00;;;;5024565;28;20662;-81
2023/09/20 10:03:29;;;;;;;3.50;1.65;;;22.70;63.00;24.30;100461.00;;;;5028245;28;20234;-83
2023/09/20 10:06:09;;;;;;;3.25;1.40;;;22.80;62.80;24.40;100463.00;;;;5028888;28;20197;-81
2023/09/20 10:08:39;;;;;;;1.98;1.27;;;22.90;62.70;24.50;100455.00;;;;5029085;28;20196;-80
2023/09/20 10:11:07;;;;;;;4.85;1.42;;;23.00;62.80;24.60;100460.00;;;;5026816;28;20246;-81
2023/09/20 10:13:36;;;;;;;3.88;1.92;;;23.10;62.60;24.60;100452.00;;;;5026749;28;20230;-81
2023/09/20 10:16:10;;;;;;;3.70;1.75;;;23.10;62.50;24.70;100449.00;;;;5027812;28;20208;-80
2023/09/20 10:18:56;;;;;;;2.78;1.73;;;23.20;62.40;24.60;100457.00;;;;5028397;28;20200;-78
2023/09/20 10:21:25;;;;;;;3.22;1.70;;;23.20;62.00;24.80;100456.00;;;;5028989;28;20271;-79
2023/09/20 10:23:55;;;;;;;2.45;1.75;;;23.30;62.10;24.80;100450.00;;;;5029318;28;20196;-80
2023/09/20 10:26:22;;;;;;;2.42;1.52;;;23.40;62.00;24.90;100454.00;;;;5028869;28;20254;-80
2023/09/20 10:28:57;;;;;;;2.63;1.73;;;23.40;61.90;24.80;100445.00;;;;5028671;28;20192;-81
2023/09/20 10:31:29;;;;;;;3.78;1.85;;;23.40;61.60;24.90;100448.00;;;;5013052;28;20226;-78
2023/09/20 10:33:57;;;;;;;2.58;1.27;;;23.50;61.60;24.90;100452.00;;;;5028182;28;20239;-79
2023/09/20 10:36:28;;;;;;;2.33;1.70;;;23.50;61.40;24.90;100473.00;;;;5027774;28;20207;-79
2023/09/20 10:39:22;;;;;;;4.00;2.05;;;23.50;61.30;24.80;100443.00;;;;5029209;28;20208;-80
2023/09/20 10:41:51;;;;;;;2.50;1.77;;;23.50;60.50;24.90;100444.00;;;;5025211;28;20188;-80
2023/09/20 10:44:33;;;;;;;3.28;1.52;;;23.50;60.90;24.80;100447.00;;;;5028396;28;20185;-80
2023/09/20 10:47:08;;;;;;;2.25;1.30;;;23.50;60.80;24.90;100440.00;;;;5028208;28;20204;-79
2023/09/20 10:49:52;;;;;;;2.70;1.38;;;23.60;60.80;24.90;100452.00;;;;5028993;28;20242;-80
2023/09/20 10:52:59;;;;;;;4.65;1.75;;;23.60;60.70;24.80;100453.00;;;;5029174;28;20199;-80
2023/09/20 10:55:36;;;;;;;2.80;1.58;;;23.60;60.50;24.90;100442.00;;;;5028546;28;20230;-79
2023/09/20 10:58:04;;;;;;;6.10;1.80;;;23.60;60.60;25.00;100441.00;;;;5027095;28;20208;-80
2023/09/20 11:00:35;;;;;;;2.75;1.48;;;23.60;60.80;25.00;100442.00;;;;5027703;28;20200;-80
2023/09/20 11:03:08;;;;;;;1.65;1.10;;;23.60;60.80;25.00;100433.00;;;;5028021;28;20199;-79
2023/09/20 11:05:35;;;;;;;1.35;1.23;;;23.60;60.70;25.00;100429.00;;;;5027830;28;20196;-80
2023/09/20 11:08:07;;;;;;;1.50;1.10;;;23.70;60.80;25.10;100423.00;;;;5027301;28;20207;-80
2023/09/20 11:10:34;;;;;;;3.60;1.30;;;23.60;60.80;25.20;100419.00;;;;5028746;28;20210;-79
2023/09/20 11:13:06;;;;;;;2.45;1.17;;;23.70;61.50;25.20;100414.00;;;;5027816;28;20210;-80
2023/09/20 11:15:40;;;;;;;4.22;1.83;;;23.70;60.80;25.30;100410.00;;;;5032278;28;20199;-79
2023/09/20 11:18:08;;;;;;;2.40;1.50;;;23.80;61.00;25.40;100410.00;;;;5034490;28;20199;-79
2023/09/20 11:20:37;;;;;;;4.32;1.30;;;23.90;61.90;25.50;100400.00;;;;5034977;28;20207;-80
2023/09/20 11:23:04;;;;;;;2.38;1.67;;;24.00;61.20;25.60;100415.00;;;;5034724;28;20216;-80
2023/09/20 11:25:33;;;;;;;3.60;1.40;;;24.10;60.80;25.70;100418.00;;;;5034822;28;20208;-80
2023/09/20 11:28:00;;;;;;;2.95;1.42;;;24.20;60.60;25.70;100428.00;;;;5032529;28;20200;-80
2023/09/20 11:30:28;;;;;;;2.95;1.58;;;24.30;60.40;25.80;100424.00;;;;5031522;28;20212;-81
2023/09/20 11:32:55;;;;;;;2.53;1.67;;;24.40;60.00;25.80;100418.00;;;;5034463;28;20247;-80
2023/09/20 11:35:38;;;;;;;2.55;1.58;;;24.40;59.90;25.70;100418.00;;;;5034544;28;20227;-80
2023/09/20 11:38:07;;;;;;;2.80;1.63;;;24.50;59.20;25.80;100420.00;;;;5035094;28;20207;-80